Time;durP1;ratioP1;P1;durP2;ratioP2;P2;SDS_P1;SDS_P2;PMS_P1;PMS_P2;Temp;Humidity;BMP_temperature;BMP_pressure;BME280_temperature;BME280_humidity;BME280_pressure;Samples;Min_cycle;Max_cycle;Signal;HPM_P1;HPM_P2
2022/07/03 00:00:42;;;;;;;14.17;8.40;;;23.40;34.00;;;;;;5023425;28;20183;-72
2022/07/03 00:03:07;;;;;;;12.73;8.67;;;23.30;34.20;;;;;;5030491;28;20190;-72
2022/07/03 00:05:34;;;;;;;12.50;8.20;;;23.10;34.80;;;;;;5030560;28;20214;-71
2022/07/03 00:07:59;;;;;;;18.33;8.53;;;23.10;35.00;;;;;;5029572;28;20671;-72
2022/07/03 00:10:25;;;;;;;13.20;7.50;;;23.10;36.70;;;;;;5031437;28;20494;-72
2022/07/03 00:12:50;;;;;;;14.17;7.70;;;23.10;36.20;;;;;;5030952;28;20175;-71
2022/07/03 00:15:16;;;;;;;12.27;7.87;;;23.10;36.80;;;;;;5030018;28;20195;-72
2022/07/03 00:17:42;;;;;;;13.00;7.27;;;23.00;37.30;;;;;;5030096;28;20801;-71
2022/07/03 00:20:08;;;;;;;13.80;7.40;;;22.90;36.60;;;;;;5031235;28;20205;-72
2022/07/03 00:22:41;;;;;;;9.27;7.10;;;22.80;37.80;;;;;;5035294;28;20548;-71
2022/07/03 00:25:10;;;;;;;12.57;6.80;;;22.60;36.90;;;;;;5035304;28;20424;-72
2022/07/03 00:27:37;;;;;;;13.10;6.30;;;22.60;37.30;;;;;;5034219;28;20443;-71
2022/07/03 00:30:04;;;;;;;11.63;6.50;;;22.40;37.20;;;;;;5033151;28;20941;-72
2022/07/03 00:32:30;;;;;;;12.07;7.10;;;22.30;37.00;;;;;;5035248;28;20434;-72
2022/07/03 00:34:57;;;;;;;11.40;6.47;;;22.30;38.10;;;;;;5034204;28;20917;-71
2022/07/03 00:37:24;;;;;;;11.10;6.60;;;22.20;37.70;;;;;;5035323;28;20197;-71
2022/07/03 00:39:49;;;;;;;20.43;6.77;;;22.20;38.90;;;;;;5034185;28;20470;-72
2022/07/03 00:42:16;;;;;;;11.63;7.17;;;22.20;38.80;;;;;;5034414;28;20508;-71
2022/07/03 00:44:53;;;;;;;15.60;7.20;;;22.10;39.60;;;;;;5034982;28;20188;-71
2022/07/03 00:47:23;;;;;;;11.57;6.83;;;22.20;38.70;;;;;;5034348;28;20932;-71
2022/07/03 00:49:53;;;;;;;12.10;8.10;;;22.20;38.80;;;;;;5033956;28;20456;-72
2022/07/03 00:52:21;;;;;;;13.17;7.97;;;22.00;38.90;;;;;;5034823;28;20456;-72
2022/07/03 00:54:55;;;;;;;22.67;8.70;;;21.90;39.10;;;;;;5034122;28;20448;-72
2022/07/03 00:57:23;;;;;;;10.03;7.50;;;21.80;39.00;;;;;;5034426;28;20431;-71
2022/07/03 00:59:50;;;;;;;11.33;7.90;;;21.80;39.50;;;;;;5033434;28;20505;-72
2022/07/03 01:02:34;;;;;;;17.83;7.17;;;21.80;40.00;;;;;;5034497;28;20415;-72
2022/07/03 01:05:12;;;;;;;14.80;6.83;;;21.80;41.10;;;;;;5033875;28;20450;-72
2022/07/03 01:07:56;;;;;;;14.93;6.83;;;21.80;40.70;;;;;;5033969;28;20430;-71
2022/07/03 01:10:30;;;;;;;9.73;6.47;;;21.80;40.10;;;;;;5033584;28;20458;-71
2022/07/03 01:13:23;;;;;;;14.67;6.97;;;21.80;39.80;;;;;;5034393;28;20411;-71
2022/07/03 01:15:49;;;;;;;20.03;6.63;;;21.70;41.10;;;;;;5034267;28;20416;-71
2022/07/03 01:18:36;;;;;;;7.90;6.53;;;21.40;42.30;;;;;;5033841;28;20925;-71
2022/07/03 01:21:14;;;;;;;14.13;6.87;;;21.60;41.20;;;;;;5033187;28;20181;-71
2022/07/03 01:24:01;;;;;;;9.57;6.47;;;21.60;41.80;;;;;;5034407;28;20411;-72
2022/07/03 01:26:30;;;;;;;9.97;6.70;;;21.70;41.50;;;;;;5033529;28;20398;-72
2022/07/03 01:29:02;;;;;;;10.87;6.50;;;21.70;40.80;;;;;;5034243;28;20443;-72
2022/07/03 01:31:30;;;;;;;11.97;6.50;;;21.70;41.50;;;;;;5033001;28;20460;-71
2022/07/03 01:33:58;;;;;;;8.33;6.50;;;21.60;40.90;;;;;;5032898;28;20415;-71
2022/07/03 01:36:29;;;;;;;7.60;6.47;;;21.70;41.00;;;;;;5032241;28;20424;-72
2022/07/03 01:38:59;;;;;;;11.63;7.30;;;21.70;41.60;;;;;;5033182;28;20589;-72
2022/07/03 01:41:29;;;;;;;10.30;7.17;;;21.80;41.10;;;;;;5033061;28;20821;-71
2022/07/03 01:44:01;;;;;;;10.43;6.50;;;21.60;42.00;;;;;;5032920;28;21270;-72
2022/07/03 01:46:29;;;;;;;10.40;7.00;;;21.50;41.40;;;;;;5026593;28;20947;-72
2022/07/03 01:48:56;;;;;;;12.53;6.60;;;21.40;41.80;;;;;;5033003;28;20450;-72
2022/07/03 01:51:23;;;;;;;14.40;7.40;;;21.30;41.70;;;;;;5025549;28;20967;-72
2022/07/03 01:53:50;;;;;;;12.90;7.23;;;21.20;42.10;;;;;;5032624;28;20529;-72
2022/07/03 01:56:18;;;;;;;9.13;7.30;;;21.20;42.80;;;;;;5015195;28;20434;-71
2022/07/03 01:58:44;;;;;;;10.20;6.83;;;21.20;43.00;;;;;;5032616;28;21285;-71
2022/07/03 02:01:24;;;;;;;12.30;7.73;;;21.10;43.40;;;;;;5033047;28;20514;-71
2022/07/03 02:04:24;;;;;;;10.83;7.10;;;21.20;42.80;;;;;;5032598;28;20192;-72
2022/07/03 02:06:58;;;;;;;23.83;8.20;;;21.10;43.10;;;;;;5024172;28;20416;-71
2022/07/03 02:09:33;;;;;;;12.23;8.17;;;21.20;43.70;;;;;;5013758;28;20434;-71
2022/07/03 02:12:01;;;;;;;20.07;9.60;;;21.10;44.60;;;;;;5013701;28;20438;-71
2022/07/03 02:14:36;;;;;;;9.87;8.00;;;21.00;44.20;;;;;;5028600;28;20432;-71
2022/07/03 02:17:08;;;;;;;13.00;8.03;;;20.90;43.00;;;;;;5033112;28;20787;-71
2022/07/03 02:20:09;;;;;;;9.03;7.00;;;20.70;45.60;;;;;;5024624;28;20865;-71
2022/07/03 02:22:36;;;;;;;12.43;7.57;;;20.80;45.20;;;;;;5010240;28;20998;-71
2022/07/03 02:25:08;;;;;;;12.57;7.60;;;20.80;44.80;;;;;;5028233;28;20442;-72
2022/07/03 02:27:46;;;;;;;15.43;7.40;;;20.80;44.60;;;;;;5032577;28;20406;-71
2022/07/03 02:30:13;;;;;;;10.20;6.87;;;21.00;44.40;;;;;;5013142;28;20477;-71
2022/07/03 02:32:45;;;;;;;11.23;7.40;;;21.00;43.40;;;;;;5027352;28;20848;-71
2022/07/03 02:35:13;;;;;;;10.03;7.10;;;21.00;44.40;;;;;;5031885;28;20457;-71
2022/07/03 02:37:50;;;;;;;16.40;7.17;;;20.80;44.50;;;;;;5033119;28;20419;-72
2022/07/03 02:40:39;;;;;;;9.57;6.67;;;20.80;45.90;;;;;;5031987;28;20488;-71
2022/07/03 02:43:26;;;;;;;16.23;6.90;;;20.90;44.90;;;;;;5032641;28;20506;-71
2022/07/03 02:46:48;;;;;;;11.23;7.30;;;20.90;45.10;;;;;;5031574;28;20430;-71
2022/07/03 02:48:56;;;;;;;12.83;6.87;;;20.80;44.70;;;;;;5023971;28;20466;-71
2022/07/03 02:51:28;;;;;;;10.00;6.40;;;20.60;46.00;;;;;;5031074;28;20507;-72
2022/07/03 02:54:04;;;;;;;14.63;6.53;;;20.60;46.20;;;;;;5032624;28;20456;-71
2022/07/03 02:56:46;;;;;;;12.20;6.37;;;20.70;46.00;;;;;;5012761;28;20430;-71
2022/07/03 02:59:20;;;;;;;16.07;6.70;;;20.60;45.40;;;;;;5023766;28;20459;-71
2022/07/03 03:02:03;;;;;;;7.67;6.13;;;20.60;44.90;;;;;;5032083;28;20418;-71
2022/07/03 03:04:31;;;;;;;9.03;6.30;;;20.30;47.30;;;;;;5032554;28;20410;-71
2022/07/03 03:07:17;;;;;;;8.80;6.47;;;20.40;46.30;;;;;;5032500;28;20418;-71
2022/07/03 03:09:47;;;;;;;9.43;6.67;;;20.30;45.80;;;;;;5030773;28;20486;-71
2022/07/03 03:12:14;;;;;;;11.40;7.10;;;20.20;45.80;;;;;;5030847;28;20513;-71
2022/07/03 03:14:42;;;;;;;12.13;6.27;;;20.30;45.80;;;;;;5032148;28;20857;-71
2022/07/03 03:17:17;;;;;;;8.97;6.67;;;20.40;45.10;;;;;;5031341;28;20448;-71
2022/07/03 03:19:51;;;;;;;9.80;6.10;;;20.30;46.10;;;;;;5031040;28;20891;-71
2022/07/03 03:22:34;;;;;;;10.23;6.30;;;20.30;45.70;;;;;;5031006;28;20429;-72
2022/07/03 03:25:02;;;;;;;10.30;6.33;;;20.20;47.00;;;;;;5031371;28;20452;-71
2022/07/03 03:27:28;;;;;;;11.10;6.60;;;20.30;46.50;;;;;;5032027;28;20449;-71
2022/07/03 03:29:54;;;;;;;8.43;5.87;;;20.40;45.80;;;;;;5029426;28;20483;-72
2022/07/03 03:32:21;;;;;;;9.80;6.00;;;20.30;45.30;;;;;;5056672;22;20498;-67
2022/07/03 03:34:47;;;;;;;10.70;6.00;;;20.20;46.30;;;;;;5067911;28;20187;-68
2022/07/03 03:37:12;;;;;;;7.10;5.57;;;20.10;46.90;;;;;;5065757;28;20427;-68
2022/07/03 03:39:38;;;;;;;8.80;5.70;;;20.00;47.80;;;;;;5070398;28;20193;-67
2022/07/03 03:42:04;;;;;;;5.67;4.77;;;20.10;48.10;;;;;;5069602;28;20232;-68
2022/07/03 03:44:30;;;;;;;13.93;5.67;;;20.30;46.10;;;;;;5066930;28;20546;-68
2022/07/03 03:46:56;;;;;;;8.73;5.37;;;20.30;45.90;;;;;;5071408;28;20410;-68
2022/07/03 03:49:22;;;;;;;10.37;5.33;;;20.20;47.00;;;;;;5071421;28;20212;-68
2022/07/03 03:51:48;;;;;;;9.23;5.37;;;20.30;47.70;;;;;;5065297;28;20223;-68
2022/07/03 03:54:13;;;;;;;13.20;5.67;;;20.30;46.70;;;;;;5070486;28;20428;-68
2022/07/03 03:56:39;;;;;;;11.57;5.97;;;20.30;47.60;;;;;;5070865;28;20279;-68
2022/07/03 03:59:05;;;;;;;9.90;5.17;;;20.40;47.10;;;;;;5071094;28;20899;-68
2022/07/03 04:01:30;;;;;;;8.67;6.00;;;20.20;46.50;;;;;;5069574;28;20241;-68
2022/07/03 04:03:58;;;;;;;8.77;5.90;;;20.10;48.30;;;;;;5066203;28;20657;-68
2022/07/03 04:06:24;;;;;;;8.60;6.13;;;20.10;49.00;;;;;;5055677;28;20285;-68
2022/07/03 04:08:49;;;;;;;7.17;5.40;;;20.20;47.70;;;;;;5070293;28;20619;-68
2022/07/03 04:11:15;;;;;;;10.13;5.70;;;20.40;48.00;;;;;;5070060;28;20189;-68
2022/07/03 04:13:41;;;;;;;8.27;6.10;;;20.40;48.20;;;;;;5067362;28;20208;-67
2022/07/03 04:16:06;;;;;;;7.67;5.60;;;20.40;47.30;;;;;;5063584;28;20598;-66
2022/07/03 04:18:32;;;;;;;6.40;5.23;;;20.30;48.70;;;;;;5066096;28;20237;-68
2022/07/03 04:20:58;;;;;;;7.10;5.57;;;20.30;48.20;;;;;;5071008;28;20177;-68
2022/07/03 04:23:24;;;;;;;7.97;6.17;;;20.50;47.50;;;;;;5071200;28;20204;-68
2022/07/03 04:25:49;;;;;;;6.30;5.30;;;20.50;48.00;;;;;;5069474;28;20430;-68
2022/07/03 04:28:15;;;;;;;8.20;5.70;;;20.50;48.00;;;;;;5062760;28;20205;-68
2022/07/03 04:30:41;;;;;;;12.27;5.67;;;20.50;47.30;;;;;;5070910;28;20195;-67
2022/07/03 04:33:06;;;;;;;12.17;6.03;;;20.50;46.80;;;;;;5070439;28;20216;-68
2022/07/03 04:35:32;;;;;;;6.80;5.43;;;20.50;46.10;;;;;;5070884;28;20174;-67
2022/07/03 04:37:58;;;;;;;7.73;5.10;;;20.60;45.80;;;;;;5066135;28;20656;-68
2022/07/03 04:40:23;;;;;;;7.27;5.23;;;20.60;45.30;;;;;;5059925;28;20181;-68
2022/07/03 04:42:49;;;;;;;9.50;7.00;;;20.70;46.60;;;;;;5070649;28;20232;-67
2022/07/03 04:45:14;;;;;;;8.00;5.73;;;20.70;44.20;;;;;;5070773;28;20177;-68
2022/07/03 04:47:40;;;;;;;8.47;5.37;;;20.50;45.20;;;;;;5059917;28;20176;-68
2022/07/03 04:50:06;;;;;;;12.13;4.80;;;20.40;45.50;;;;;;5066506;28;20535;-68
2022/07/03 04:52:32;;;;;;;6.60;5.33;;;20.00;46.50;;;;;;5070523;28;20313;-68
2022/07/03 04:54:57;;;;;;;13.03;5.20;;;19.90;46.20;;;;;;5070694;28;20409;-67
2022/07/03 04:57:23;;;;;;;34.67;5.67;;;20.00;46.60;;;;;;5067455;28;20511;-68
2022/07/03 04:59:49;;;;;;;8.07;4.97;;;19.90;47.00;;;;;;5058894;28;20185;-68
2022/07/03 05:02:14;;;;;;;8.83;5.30;;;19.90;47.30;;;;;;5070340;28;20199;-68
2022/07/03 05:04:40;;;;;;;6.27;5.10;;;20.30;47.30;;;;;;5069534;28;20214;-68
2022/07/03 05:07:05;;;;;;;6.23;4.70;;;20.60;45.90;;;;;;5072059;28;20188;-69
2022/07/03 05:09:31;;;;;;;6.00;4.53;;;20.90;44.40;;;;;;5069259;28;20179;-69
2022/07/03 05:11:57;;;;;;;13.10;4.90;;;21.00;44.10;;;;;;5067689;28;20210;-70
2022/07/03 05:14:22;;;;;;;5.23;4.27;;;21.10;43.30;;;;;;5066793;28;20184;-70
2022/07/03 05:16:48;;;;;;;8.63;4.77;;;21.20;43.20;;;;;;5074217;28;20178;-69
2022/07/03 05:19:13;;;;;;;10.07;4.30;;;20.70;44.50;;;;;;5070655;28;20200;-70
2022/07/03 05:21:39;;;;;;;6.10;4.30;;;20.50;44.70;;;;;;5072240;28;20186;-70
2022/07/03 05:24:05;;;;;;;6.53;4.37;;;20.60;45.10;;;;;;5074263;28;20545;-70
2022/07/03 05:26:31;;;;;;;9.10;4.83;;;20.80;44.50;;;;;;5074214;28;20215;-70
2022/07/03 05:28:56;;;;;;;9.60;5.07;;;20.60;45.30;;;;;;5072482;28;20452;-69
2022/07/03 05:31:22;;;;;;;7.07;4.80;;;20.80;45.80;;;;;;5067602;28;20238;-70
2022/07/03 05:33:47;;;;;;;7.57;4.80;;;21.30;45.10;;;;;;5073830;28;20220;-70
2022/07/03 05:36:13;;;;;;;19.33;5.00;;;21.30;42.90;;;;;;5074110;28;20308;-70
2022/07/03 05:41:23;;;;;;;10.60;6.33;;;21.50;43.10;;;;;;5066397;28;20187;-69
2022/07/03 05:43:49;;;;;;;17.73;6.40;;;21.60;43.20;;;;;;5073457;28;20818;-69
2022/07/03 05:46:14;;;;;;;9.10;6.20;;;21.80;44.20;;;;;;5073962;28;20185;-70
2022/07/03 05:48:40;;;;;;;13.13;6.10;;;22.20;43.70;;;;;;5071038;28;20437;-70
2022/07/03 05:51:06;;;;;;;8.80;5.10;;;22.20;43.60;;;;;;5073581;28;20214;-70
2022/07/03 05:53:31;;;;;;;11.53;5.33;;;22.50;42.20;;;;;;5070921;28;20228;-70
2022/07/03 05:55:58;;;;;;;6.10;4.27;;;22.50;43.40;;;;;;5069812;28;20208;-69
2022/07/03 05:58:23;;;;;;;10.23;4.50;;;22.80;40.70;;;;;;5068378;28;20183;-70
2022/07/03 06:00:49;;;;;;;7.30;4.70;;;23.00;41.00;;;;;;5073368;28;20424;-69
2022/07/03 06:03:14;;;;;;;5.13;3.97;;;22.90;41.60;;;;;;5073217;28;20717;-70
2022/07/03 06:05:40;;;;;;;4.93;4.07;;;22.90;39.60;;;;;;5073327;28;20191;-70
2022/07/03 06:08:06;;;;;;;5.60;4.20;;;22.90;39.20;;;;;;5072505;28;20221;-69
2022/07/03 06:10:32;;;;;;;4.50;4.10;;;23.10;39.00;;;;;;5066615;28;20294;-70
2022/07/03 06:12:58;;;;;;;7.80;4.37;;;23.20;37.50;;;;;;5073028;28;20428;-70
2022/07/03 06:15:24;;;;;;;6.83;4.00;;;23.30;38.40;;;;;;5073458;28;20409;-69
2022/07/03 06:17:49;;;;;;;7.20;4.70;;;23.30;38.00;;;;;;5073112;28;20164;-68
2022/07/03 06:20:16;;;;;;;9.17;4.57;;;23.20;38.00;;;;;;5068863;28;20267;-69
2022/07/03 06:22:42;;;;;;;5.00;4.20;;;23.30;37.30;;;;;;5072713;28;20195;-70
2022/07/03 06:25:08;;;;;;;7.67;4.40;;;22.90;38.60;;;;;;5068586;28;20459;-68
2022/07/03 06:27:34;;;;;;;5.73;4.20;;;23.20;39.00;;;;;;5061154;28;20432;-68
2022/07/03 06:30:00;;;;;;;8.60;4.80;;;23.30;37.80;;;;;;5060526;28;20436;-69
2022/07/03 06:32:26;;;;;;;6.70;5.20;;;23.40;38.40;;;;;;5065464;28;20524;-68
2022/07/03 06:34:52;;;;;;;8.50;4.50;;;23.30;38.00;;;;;;5070759;28;20184;-69
2022/07/03 06:37:17;;;;;;;5.30;4.10;;;23.00;38.80;;;;;;5071055;28;20195;-69
2022/07/03 06:39:43;;;;;;;6.60;4.60;;;23.00;39.20;;;;;;5072409;28;20447;-71
2022/07/03 06:42:09;;;;;;;6.07;4.13;;;23.50;38.60;;;;;;5062988;28;20224;-69
2022/07/03 06:44:34;;;;;;;7.53;4.10;;;23.80;37.90;;;;;;5052668;28;20178;-69
2022/07/03 06:47:03;;;;;;;11.17;4.60;;;23.40;37.30;;;;;;5052539;28;20255;-69
2022/07/03 06:49:32;;;;;;;5.20;4.10;;;23.60;37.80;;;;;;5066459;28;20179;-69
2022/07/03 06:51:58;;;;;;;6.77;4.30;;;23.90;36.60;;;;;;5065773;28;20914;-69
2022/07/03 06:54:24;;;;;;;5.13;4.30;;;23.80;37.10;;;;;;5063433;28;20429;-69
2022/07/03 06:56:49;;;;;;;6.27;4.20;;;23.80;36.80;;;;;;5063826;28;20281;-69
2022/07/03 06:59:15;;;;;;;9.03;4.13;;;24.00;37.00;;;;;;5068073;28;20545;-69
2022/07/03 07:01:41;;;;;;;7.37;4.10;;;24.00;37.00;;;;;;5064392;28;20190;-68
2022/07/03 07:04:06;;;;;;;6.30;3.80;;;24.20;36.40;;;;;;5067984;28;20646;-69
2022/07/03 07:06:32;;;;;;;9.17;4.10;;;24.00;36.90;;;;;;5061357;28;20705;-69
2022/07/03 07:08:57;;;;;;;5.03;3.73;;;23.70;36.80;;;;;;5068810;28;20182;-69
2022/07/03 07:11:23;;;;;;;4.60;3.57;;;23.70;37.90;;;;;;5070130;28;20207;-68
2022/07/03 07:13:49;;;;;;;5.20;3.40;;;23.80;37.50;;;;;;5065735;28;20568;-69
2022/07/03 07:16:14;;;;;;;4.10;3.90;;;23.70;37.60;;;;;;5069848;28;20208;-69
2022/07/03 07:18:41;;;;;;;9.37;3.47;;;23.70;37.50;;;;;;5068420;28;20211;-69
2022/07/03 07:21:06;;;;;;;4.17;3.17;;;24.00;36.90;;;;;;5066326;28;20185;-69
2022/07/03 07:23:32;;;;;;;6.07;3.60;;;23.60;37.10;;;;;;5060885;28;20457;-69
2022/07/03 07:25:58;;;;;;;4.70;3.37;;;23.60;37.20;;;;;;5062514;28;20180;-69
2022/07/03 07:28:24;;;;;;;10.13;3.40;;;23.90;36.00;;;;;;5063218;28;20436;-69
2022/07/03 07:30:53;;;;;;;6.30;3.17;;;24.60;35.60;;;;;;5070461;28;20263;-69
2022/07/03 07:33:19;;;;;;;4.20;2.93;;;24.60;34.80;;;;;;5053312;28;20198;-69
2022/07/03 07:35:45;;;;;;;3.20;2.60;;;23.80;34.60;;;;;;5061935;28;20940;-69
2022/07/03 07:38:10;;;;;;;4.93;2.97;;;23.90;34.40;;;;;;5062918;28;20207;-69
2022/07/03 07:40:36;;;;;;;4.27;2.60;;;23.80;34.10;;;;;;5065880;28;20175;-69
2022/07/03 07:43:02;;;;;;;4.33;2.90;;;24.40;32.70;;;;;;5066481;28;20209;-69
2022/07/03 07:45:27;;;;;;;4.10;3.20;;;25.00;31.20;;;;;;5057738;28;20433;-69
2022/07/03 07:47:53;;;;;;;3.00;2.70;;;25.10;32.10;;;;;;5071348;28;20178;-69
2022/07/03 07:50:18;;;;;;;4.50;3.27;;;24.90;31.00;;;;;;5063417;28;20678;-69
2022/07/03 07:52:44;;;;;;;7.17;2.87;;;25.00;31.80;;;;;;5071310;28;20195;-69
2022/07/03 07:55:10;;;;;;;4.07;2.60;;;25.50;31.10;;;;;;5058691;28;20178;-68
2022/07/03 07:57:37;;;;;;;5.10;3.00;;;24.70;30.50;;;;;;5065690;28;20663;-68
2022/07/03 08:00:11;;;;;;;9.63;3.00;;;24.50;31.30;;;;;;5058518;28;20539;-67
2022/07/03 08:05:36;;;;;;;2.90;2.10;;;25.00;29.20;;;;;;5054638;28;20487;-69
2022/07/03 08:08:12;;;;;;;3.50;2.50;;;25.30;26.90;;;;;;5067881;28;20444;-69
2022/07/03 08:10:49;;;;;;;6.60;2.70;;;24.80;28.80;;;;;;5060544;28;20428;-69
2022/07/03 08:13:17;;;;;;;4.00;2.70;;;25.40;28.70;;;;;;5068910;28;20440;-69
2022/07/03 08:15:44;;;;;;;4.77;2.30;;;25.70;27.30;;;;;;5068633;28;20860;-68
2022/07/03 08:18:10;;;;;;;4.10;2.50;;;25.10;27.30;;;;;;5066068;28;20484;-68
2022/07/03 08:20:36;;;;;;;6.00;2.77;;;24.80;29.40;;;;;;5061387;28;20931;-68
2022/07/03 08:23:03;;;;;;;5.00;2.60;;;25.20;28.80;;;;;;5066932;28;20210;-68
2022/07/03 08:25:29;;;;;;;5.20;2.33;;;25.50;27.40;;;;;;5062446;28;20513;-68
2022/07/03 08:27:58;;;;;;;3.57;2.40;;;25.20;26.00;;;;;;5055790;28;20436;-68
2022/07/03 08:30:25;;;;;;;5.67;2.40;;;25.00;27.00;;;;;;5063854;28;20483;-69
2022/07/03 08:32:52;;;;;;;4.00;2.47;;;25.50;25.80;;;;;;5068199;28;20482;-69
2022/07/03 08:35:18;;;;;;;5.33;2.57;;;26.10;26.30;;;;;;5069565;28;20758;-67
2022/07/03 08:37:46;;;;;;;2.73;2.27;;;26.90;24.80;;;;;;5065613;28;20432;-69
2022/07/03 08:40:13;;;;;;;2.80;2.10;;;27.10;22.30;;;;;;5045728;28;20262;-69
2022/07/03 08:42:45;;;;;;;3.53;2.40;;;27.40;21.60;;;;;;5063525;28;20467;-69
2022/07/03 08:45:15;;;;;;;6.47;2.20;;;26.80;22.60;;;;;;5076787;28;20409;-69
2022/07/03 08:47:43;;;;;;;5.43;2.20;;;27.20;23.90;;;;;;5076989;28;20424;-69
2022/07/03 08:50:14;;;;;;;2.70;2.27;;;27.20;21.10;;;;;;5075254;28;20421;-69
2022/07/03 08:52:42;;;;;;;6.17;2.07;;;26.80;22.40;;;;;;5075524;28;20979;-69
2022/07/03 08:55:09;;;;;;;2.33;2.00;;;27.20;22.10;;;;;;5075187;28;20965;-69
2022/07/03 08:57:36;;;;;;;2.50;2.10;;;26.80;22.90;;;;;;5075875;28;20904;-69
2022/07/03 09:00:05;;;;;;;7.60;2.10;;;27.40;22.90;;;;;;5077348;28;20466;-69
2022/07/03 09:02:32;;;;;;;3.60;2.43;;;27.70;22.20;;;;;;5075328;28;20444;-69
2022/07/03 09:04:58;;;;;;;2.77;2.20;;;27.60;23.00;;;;;;5075927;28;20412;-68
2022/07/03 09:07:26;;;;;;;2.77;2.53;;;27.00;22.20;;;;;;5075440;28;20922;-69
2022/07/03 09:09:52;;;;;;;3.40;2.17;;;26.70;23.00;;;;;;5075605;28;20434;-67
2022/07/03 09:12:19;;;;;;;5.37;2.50;;;27.30;22.90;;;;;;5073506;28;20468;-69
2022/07/03 09:14:44;;;;;;;4.13;2.30;;;27.90;22.40;;;;;;5058402;28;20178;-69
2022/07/03 09:17:10;;;;;;;3.00;2.30;;;28.30;22.30;;;;;;5076202;28;20406;-68
2022/07/03 09:19:41;;;;;;;2.80;2.30;;;28.20;21.20;;;;;;5075736;28;20167;-68
2022/07/03 09:22:21;;;;;;;2.10;1.93;;;28.20;21.90;;;;;;5075021;28;20662;-69
2022/07/03 09:24:48;;;;;;;2.90;2.27;;;28.10;21.40;;;;;;5076410;28;20419;-69
2022/07/03 09:27:18;;;;;;;5.63;2.63;;;28.20;22.40;;;;;;5075699;28;20927;-69
2022/07/03 09:30:01;;;;;;;3.63;2.00;;;27.60;20.90;;;;;;5075583;28;20435;-68
2022/07/03 09:32:45;;;;;;;3.17;2.10;;;27.80;21.20;;;;;;5075286;28;20475;-69
2022/07/03 09:35:20;;;;;;;5.80;2.40;;;28.20;20.00;;;;;;5055719;28;20414;-69
2022/07/03 09:37:57;;;;;;;3.03;2.30;;;27.50;21.30;;;;;;5055107;28;20402;-69
2022/07/03 09:40:24;;;;;;;3.33;2.30;;;27.50;21.70;;;;;;5037319;28;20429;-69
2022/07/03 09:43:04;;;;;;;3.40;2.10;;;27.00;22.10;;;;;;5054551;28;20426;-69
2022/07/03 09:45:55;;;;;;;3.20;2.13;;;27.10;22.10;;;;;;5069744;28;20417;-69
2022/07/03 09:48:26;;;;;;;2.60;2.10;;;27.60;22.40;;;;;;5076293;28;20386;-69
2022/07/03 09:51:23;;;;;;;4.00;2.20;;;28.30;20.90;;;;;;5076475;28;20449;-69
2022/07/03 09:54:04;;;;;;;2.93;2.13;;;28.80;20.30;;;;;;5075727;28;20460;-69
2022/07/03 09:56:37;;;;;;;3.30;2.40;;;28.80;18.60;;;;;;5054754;28;20943;-68
2022/07/03 09:59:13;;;;;;;3.30;2.40;;;27.80;20.20;;;;;;5054341;28;20502;-69
2022/07/03 10:01:41;;;;;;;3.50;2.53;;;27.40;20.30;;;;;;5054096;28;20414;-69
2022/07/03 10:04:15;;;;;;;3.73;1.87;;;27.10;20.90;;;;;;5054942;28;20593;-68
2022/07/03 10:06:47;;;;;;;3.40;1.97;;;26.90;20.30;;;;;;5071545;28;20434;-68
2022/07/03 10:09:16;;;;;;;5.00;2.10;;;27.40;19.70;;;;;;5074942;28;20413;-69
2022/07/03 10:11:42;;;;;;;4.60;1.90;;;28.20;19.80;;;;;;5075893;28;20475;-68
2022/07/03 10:14:11;;;;;;;4.57;2.40;;;28.70;19.30;;;;;;5076309;28;20909;-68
2022/07/03 10:16:36;;;;;;;6.33;2.20;;;29.10;16.00;;;;;;5073443;28;20444;-69
2022/07/03 10:19:04;;;;;;;4.40;1.90;;;29.40;17.50;;;;;;5076619;28;20409;-68
2022/07/03 10:21:30;;;;;;;2.80;2.13;;;29.50;17.80;;;;;;5074632;28;20171;-68
2022/07/03 10:23:57;;;;;;;4.70;1.90;;;29.50;16.60;;;;;;5074466;28;20429;-69
2022/07/03 10:26:23;;;;;;;3.37;2.00;;;28.30;17.50;;;;;;5072169;28;20478;-69
2022/07/03 10:28:50;;;;;;;2.70;2.07;;;28.10;18.40;;;;;;5074238;28;20422;-69
2022/07/03 10:31:16;;;;;;;3.10;2.00;;;28.60;17.80;;;;;;5074989;28;20480;-69
2022/07/03 10:33:42;;;;;;;3.67;2.50;;;28.90;17.20;;;;;;5075131;28;20452;-68
2022/07/03 10:36:08;;;;;;;2.30;1.90;;;28.60;16.90;;;;;;5074488;28;20198;-69
2022/07/03 10:38:42;;;;;;;2.57;1.93;;;28.30;17.10;;;;;;5072070;28;20486;-69
2022/07/03 10:47:04;;;;;;;2.37;1.93;;;29.20;18.10;;;;;;5076357;28;20431;-69
2022/07/03 10:49:30;;;;;;;5.00;2.20;;;29.90;15.80;;;;;;5074005;28;20465;-69
2022/07/03 10:52:03;;;;;;;3.87;2.37;;;29.50;17.50;;;;;;5074659;28;20500;-69
2022/07/03 10:54:48;;;;;;;2.30;1.90;;;29.10;16.00;;;;;;5073900;28;20280;-69
2022/07/03 10:57:18;;;;;;;3.03;2.00;;;28.40;17.60;;;;;;5074730;28;20904;-69
2022/07/03 10:59:46;;;;;;;3.60;1.90;;;28.50;16.40;;;;;;5072587;28;20425;-69
2022/07/03 11:02:38;;;;;;;4.90;1.90;;;29.20;15.40;;;;;;5075928;28;20440;-68
2022/07/03 11:05:11;;;;;;;2.30;1.90;;;29.80;16.20;;;;;;5075756;28;20401;-69
2022/07/03 11:08:04;;;;;;;2.80;2.10;;;29.80;15.00;;;;;;5076743;28;20860;-68
2022/07/03 11:10:32;;;;;;;3.50;1.87;;;29.50;16.50;;;;;;5072835;28;20427;-69
2022/07/03 11:13:12;;;;;;;3.10;2.00;;;28.90;16.40;;;;;;5075608;28;20912;-69
2022/07/03 11:15:51;;;;;;;2.43;2.00;;;29.40;17.70;;;;;;5076498;28;20899;-69
2022/07/03 11:18:18;;;;;;;11.73;1.83;;;30.40;17.80;;;;;;5076767;28;20465;-69
2022/07/03 11:20:43;;;;;;;4.10;1.90;;;31.00;14.60;;;;;;5073151;28;20478;-69
2022/07/03 11:23:27;;;;;;;2.80;2.00;;;30.30;15.00;;;;;;5076243;28;20512;-69
2022/07/03 11:26:00;;;;;;;2.30;1.90;;;31.10;14.60;;;;;;5074660;28;20159;-69
2022/07/03 11:28:31;;;;;;;4.17;1.93;;;31.40;15.60;;;;;;5074424;28;20401;-68
2022/07/03 11:31:18;;;;;;;2.90;1.90;;;31.40;13.60;;;;;;5072138;28;20453;-68
2022/07/03 11:33:58;;;;;;;2.40;1.83;;;31.80;15.70;;;;;;5077138;28;21095;-68
2022/07/03 11:36:25;;;;;;;3.17;1.90;;;32.60;17.50;;;;;;5075725;28;20401;-69
2022/07/03 11:38:57;;;;;;;2.83;1.80;;;33.70;14.10;;;;;;5057873;28;20438;-69
2022/07/03 11:41:25;;;;;;;1.83;1.60;;;34.50;12.20;;;;;;5052861;28;20413;-69
2022/07/03 11:43:53;;;;;;;1.93;1.70;;;34.80;14.00;;;;;;5052201;28;20959;-70
2022/07/03 11:46:21;;;;;;;2.77;1.90;;;35.60;12.20;;;;;;5052231;28;20917;-69
2022/07/03 11:48:47;;;;;;;2.43;1.80;;;35.60;11.70;;;;;;5061162;28;20441;-69
2022/07/03 11:51:13;;;;;;;2.43;1.80;;;35.30;12.50;;;;;;5052274;28;20465;-69
2022/07/03 11:53:40;;;;;;;2.00;1.80;;;35.60;11.20;;;;;;5052189;28;20481;-70
2022/07/03 11:56:06;;;;;;;2.57;1.63;;;35.50;10.50;;;;;;5051774;28;20398;-70
2022/07/03 11:58:50;;;;;;;2.90;1.77;;;35.90;11.90;;;;;;5052880;28;20417;-72
2022/07/03 12:01:37;;;;;;;3.37;1.93;;;36.20;9.70;;;;;;5071011;28;20427;-69
2022/07/03 12:04:12;;;;;;;9.60;2.00;;;35.90;12.10;;;;;;5051714;28;20519;-69
2022/07/03 12:07:05;;;;;;;3.93;2.17;;;35.60;11.60;;;;;;5054658;28;20497;-69
2022/07/03 12:09:35;;;;;;;1.97;1.83;;;33.90;11.00;;;;;;5059107;28;20424;-69
2022/07/03 12:12:06;;;;;;;2.80;1.90;;;32.90;12.00;;;;;;5076286;28;20457;-69
2022/07/03 12:14:49;;;;;;;3.57;1.93;;;32.30;13.50;;;;;;5074916;28;20432;-69
2022/07/03 12:17:16;;;;;;;3.23;2.00;;;31.80;13.10;;;;;;5057434;28;20421;-69
2022/07/03 12:19:55;;;;;;;6.43;1.87;;;31.90;13.30;;;;;;5055911;28;20789;-69
2022/07/03 12:22:32;;;;;;;3.00;1.83;;;31.70;13.50;;;;;;5056135;28;20452;-69
2022/07/03 12:25:12;;;;;;;4.70;2.10;;;31.90;14.10;;;;;;5053994;28;20437;-70
2022/07/03 12:27:40;;;;;;;4.13;2.07;;;33.50;15.00;;;;;;5052287;28;20392;-69
2022/07/03 12:30:09;;;;;;;2.70;1.87;;;34.40;13.80;;;;;;5053923;28;20921;-69
2022/07/03 12:32:36;;;;;;;1.70;1.70;;;33.70;10.70;;;;;;5054999;28;20478;-69
2022/07/03 12:35:03;;;;;;;3.13;2.07;;;33.50;12.20;;;;;;5053897;28;20407;-69
2022/07/03 12:37:45;;;;;;;3.03;2.00;;;33.50;11.10;;;;;;5035604;28;20421;-69
2022/07/03 12:40:13;;;;;;;2.60;1.93;;;33.60;10.70;;;;;;5054716;28;20383;-69
2022/07/03 12:42:44;;;;;;;2.50;1.97;;;32.70;11.90;;;;;;5069452;28;20444;-69
2022/07/03 12:45:12;;;;;;;5.00;2.10;;;32.50;12.80;;;;;;5074434;28;20417;-69
2022/07/03 12:47:38;;;;;;;3.60;2.10;;;33.00;12.80;;;;;;5075443;28;20912;-68
2022/07/03 12:50:06;;;;;;;2.90;2.20;;;33.10;11.50;;;;;;5056814;28;20409;-68
2022/07/03 12:52:34;;;;;;;5.10;1.90;;;32.70;11.00;;;;;;5073360;28;20461;-69
2022/07/03 12:55:02;;;;;;;3.73;1.87;;;32.90;14.60;;;;;;5073982;28;20427;-68
2022/07/03 13:00:17;;;;;;;3.00;2.00;;;34.50;13.40;;;;;;5072223;28;20511;-68
2022/07/03 13:02:46;;;;;;;2.80;1.80;;;34.10;9.60;;;;;;5071434;28;20940;-69
2022/07/03 13:05:18;;;;;;;4.33;1.97;;;34.50;11.40;;;;;;5074250;28;20428;-69
2022/07/03 13:07:46;;;;;;;4.50;2.10;;;33.30;12.90;;;;;;5073966;28;20432;-69
2022/07/03 13:10:15;;;;;;;4.47;1.73;;;33.70;11.60;;;;;;5072865;28;20496;-67